createdAt,value
2018-06-14T00:00:33.925Z,15.40
2018-06-14T00:03:02.130Z,15.40
2018-06-14T00:05:31.020Z,15.40
2018-06-14T00:07:59.303Z,15.40
2018-06-14T00:10:27.478Z,15.40
2018-06-14T00:12:55.810Z,15.30
2018-06-14T00:15:24.051Z,15.30
2018-06-14T00:17:52.258Z,15.40
2018-06-14T00:20:20.529Z,15.30
2018-06-14T00:22:48.744Z,15.30
2018-06-14T00:25:16.926Z,15.30
2018-06-14T00:27:45.224Z,15.30
2018-06-14T00:30:13.402Z,15.30
2018-06-14T00:32:41.602Z,15.30
2018-06-14T00:35:09.850Z,15.30
2018-06-14T00:37:38.075Z,15.20
2018-06-14T00:40:06.332Z,15.20
2018-06-14T00:45:03.178Z,15.20
2018-06-14T00:47:31.604Z,15.20
2018-06-14T00:49:59.799Z,15.20
2018-06-14T00:52:29.042Z,15.20
2018-06-14T00:54:57.607Z,15.20
2018-06-14T00:57:28.314Z,15.20
2018-06-14T00:59:56.916Z,15.20
2018-06-14T01:04:53.202Z,15.20
2018-06-14T01:09:49.955Z,15.10
2018-06-14T01:12:18.934Z,15.10
2018-06-14T01:14:47.418Z,15.10
2018-06-14T01:17:15.695Z,15.00
2018-06-14T01:19:44.028Z,15.00
2018-06-14T01:22:12.275Z,15.00
2018-06-14T01:24:41.486Z,15.00
2018-06-14T01:27:12.307Z,15.00
2018-06-14T01:29:40.670Z,15.00
2018-06-14T01:32:08.950Z,15.00
2018-06-14T01:34:37.183Z,15.00
2018-06-14T01:37:05.426Z,15.00
2018-06-14T01:39:33.690Z,15.00
2018-06-14T01:42:01.935Z,15.00
2018-06-14T01:44:30.136Z,15.00
2018-06-14T01:51:54.584Z,15.00
2018-06-14T01:54:22.795Z,15.00
2018-06-14T01:56:51.057Z,14.90
2018-06-14T01:59:19.475Z,14.90
2018-06-14T02:01:47.665Z,14.80
2018-06-14T02:04:15.884Z,14.70
2018-06-14T02:06:44.104Z,14.60
2018-06-14T02:09:12.306Z,14.50
2018-06-14T02:11:43.424Z,14.50
2018-06-14T02:14:11.697Z,14.40
2018-06-14T02:16:40.174Z,14.40
2018-06-14T02:19:08.390Z,14.30
2018-06-14T02:21:36.576Z,14.30
2018-06-14T02:24:04.783Z,14.30
2018-06-14T02:26:32.953Z,14.20
2018-06-14T02:29:01.170Z,14.20
2018-06-14T02:31:29.461Z,14.10
2018-06-14T02:33:58.484Z,14.10
2018-06-14T02:38:54.714Z,14.00
2018-06-14T02:41:22.917Z,14.00
2018-06-14T02:43:51.130Z,13.90
2018-06-14T02:48:47.531Z,13.80
2018-06-14T02:51:16.130Z,13.80
2018-06-14T02:53:45.186Z,13.80
2018-06-14T02:56:13.478Z,13.70
2018-06-14T02:58:41.721Z,13.60
2018-06-14T03:01:09.977Z,13.70
2018-06-14T03:06:06.483Z,13.70
2018-06-14T03:08:34.873Z,13.70
2018-06-14T03:11:03.094Z,13.70
2018-06-14T03:13:31.278Z,13.60
2018-06-14T03:15:59.802Z,13.60
2018-06-14T03:18:28.050Z,13.70
2018-06-14T03:20:56.267Z,13.70
2018-06-14T03:23:24.490Z,13.80
2018-06-14T03:25:53.442Z,13.80
2018-06-14T03:28:21.631Z,13.80
2018-06-14T03:30:50.561Z,13.80
2018-06-14T03:33:18.802Z,13.80
2018-06-14T03:35:47.197Z,13.90
2018-06-14T03:38:15.507Z,13.90
2018-06-14T03:40:44.794Z,13.90
2018-06-14T03:43:13.081Z,14.00
2018-06-14T03:45:41.301Z,14.10
2018-06-14T03:48:09.552Z,14.10
2018-06-14T03:50:37.794Z,14.10
2018-06-14T03:53:06.418Z,14.20
2018-06-14T03:58:03.052Z,14.30
2018-06-14T04:00:31.360Z,14.30
2018-06-14T04:02:59.907Z,14.30
2018-06-14T04:05:28.225Z,14.40
2018-06-14T04:07:56.470Z,14.40
2018-06-14T04:12:52.759Z,14.40
2018-06-14T04:15:20.995Z,14.50
2018-06-14T04:17:54.070Z,14.50
2018-06-14T04:20:22.360Z,14.50
2018-06-14T04:22:50.556Z,14.50
2018-06-14T04:25:18.810Z,14.50
2018-06-14T04:27:47.068Z,14.60
2018-06-14T04:30:15.246Z,14.60
2018-06-14T04:32:43.479Z,14.70
2018-06-14T04:35:11.663Z,14.70
2018-06-14T04:37:39.973Z,14.70
2018-06-14T04:40:08.245Z,14.80
2018-06-14T04:42:36.445Z,14.90
2018-06-14T04:45:04.989Z,14.90
2018-06-14T04:47:33.318Z,14.90
2018-06-14T04:50:01.612Z,14.90
2018-06-14T04:52:29.947Z,15.00
2018-06-14T04:54:58.167Z,15.10
2018-06-14T04:57:26.479Z,15.10
2018-06-14T04:59:54.702Z,15.20
2018-06-14T05:02:22.961Z,15.30
2018-06-14T05:04:51.241Z,15.30
2018-06-14T05:07:19.450Z,15.30
2018-06-14T05:09:47.636Z,15.30
2018-06-14T05:12:15.902Z,15.40
2018-06-14T05:14:44.142Z,15.50
2018-06-14T05:17:12.672Z,15.40
2018-06-14T05:22:08.986Z,15.50
2018-06-14T05:24:37.677Z,15.60
2018-06-14T05:27:06.315Z,15.60
2018-06-14T05:29:34.685Z,15.50
2018-06-14T05:32:03.031Z,15.60
2018-06-14T05:34:31.400Z,15.70
2018-06-14T05:36:59.628Z,15.80
2018-06-14T05:39:27.898Z,15.80
2018-06-14T05:41:57.183Z,16.00
2018-06-14T05:44:25.365Z,16.20
2018-06-14T05:46:54.617Z,16.30
2018-06-14T05:49:22.967Z,16.20
2018-06-14T05:51:51.164Z,16.20
2018-06-14T05:54:19.767Z,16.10
2018-06-14T05:56:48.110Z,16.10
2018-06-14T05:59:16.646Z,16.20
2018-06-14T06:01:44.891Z,16.30
2018-06-14T06:04:13.113Z,16.10
2018-06-14T06:06:41.570Z,16.20
2018-06-14T06:09:11.334Z,16.30
2018-06-14T06:11:39.840Z,16.30
2018-06-14T06:14:08.164Z,16.30
2018-06-14T06:16:36.368Z,16.30
2018-06-14T06:19:04.675Z,16.30
2018-06-14T06:21:32.858Z,16.30
2018-06-14T06:24:01.160Z,16.30
2018-06-14T06:26:29.554Z,16.40
2018-06-14T06:28:57.848Z,16.70
2018-06-14T06:31:26.302Z,16.90
2018-06-14T06:33:54.648Z,17.00
2018-06-14T06:38:51.615Z,17.40
2018-06-14T06:41:19.867Z,17.60
2018-06-14T06:43:48.196Z,17.60
2018-06-14T06:46:16.704Z,17.50
2018-06-14T06:48:45.435Z,17.30
2018-06-14T06:51:15.887Z,17.10
2018-06-14T06:53:44.698Z,16.90
2018-06-14T06:56:12.955Z,16.70
2018-06-14T06:58:41.347Z,16.50
2018-06-14T07:01:09.563Z,16.50
2018-06-14T07:03:38.651Z,16.60
2018-06-14T07:06:07.011Z,16.70
2018-06-14T07:08:35.217Z,16.90
2018-06-14T07:11:03.546Z,17.00
2018-06-14T07:13:32.159Z,17.00
2018-06-14T07:16:00.466Z,17.30
2018-06-14T07:18:28.980Z,17.70
2018-06-14T07:20:57.349Z,17.90
2018-06-14T07:23:26.928Z,18.00
2018-06-14T07:25:55.179Z,18.30
2018-06-14T07:28:24.182Z,18.50
2018-06-14T07:30:52.725Z,18.30
2018-06-14T07:33:21.984Z,18.30
2018-06-14T07:35:50.538Z,18.20
2018-06-14T07:38:18.908Z,18.10
2018-06-14T07:40:47.117Z,18.30
2018-06-14T07:43:15.584Z,18.40
2018-06-14T07:45:52.414Z,18.50
2018-06-14T07:48:20.697Z,18.60
2018-06-14T07:50:50.131Z,18.80
2018-06-14T07:53:18.412Z,18.90
2018-06-14T07:55:46.795Z,19.10
2018-06-14T07:58:15.062Z,19.30
2018-06-14T08:00:43.338Z,19.60
2018-06-14T08:03:12.322Z,19.70
2018-06-14T08:05:40.854Z,19.90
2018-06-14T08:08:11.250Z,19.80
2018-06-14T08:10:40.097Z,19.60
2018-06-14T08:13:08.617Z,19.60
2018-06-14T08:15:36.821Z,19.60
2018-06-14T08:18:05.023Z,19.80
2018-06-14T08:20:33.282Z,19.80
2018-06-14T08:23:02.893Z,19.70
2018-06-14T08:25:31.282Z,18.90
2018-06-14T08:27:59.679Z,18.50
2018-06-14T08:30:28.659Z,18.40
2018-06-14T08:32:58.477Z,18.60
2018-06-14T08:35:26.739Z,18.80
2018-06-14T08:37:55.289Z,19.10
2018-06-14T08:40:24.337Z,19.30
2018-06-14T08:42:54.528Z,19.50
2018-06-14T08:45:23.020Z,19.90
2018-06-14T08:47:51.407Z,20.10
2018-06-14T08:50:20.072Z,20.40
2018-06-14T08:55:16.406Z,21.00
2018-06-14T08:57:44.596Z,21.20
2018-06-14T09:00:12.814Z,21.30
2018-06-14T09:02:42.196Z,21.30
2018-06-14T09:05:10.444Z,21.10
2018-06-14T09:10:06.705Z,20.70
2018-06-14T09:17:31.014Z,20.40
2018-06-14T09:19:59.373Z,20.50
2018-06-14T09:22:30.549Z,20.60
2018-06-14T09:24:58.973Z,20.40
2018-06-14T09:27:27.576Z,20.40
2018-06-14T09:29:55.897Z,20.30
2018-06-14T09:34:52.901Z,20.20
2018-06-14T09:37:21.126Z,20.10
2018-06-14T09:39:49.433Z,19.80
2018-06-14T09:42:18.126Z,19.70
2018-06-14T09:44:46.459Z,19.60
2018-06-14T09:47:14.650Z,19.60
2018-06-14T09:49:43.995Z,19.70
2018-06-14T09:52:16.898Z,19.70
2018-06-14T09:54:45.137Z,19.90
2018-06-14T09:57:17.653Z,20.10
2018-06-14T09:59:45.932Z,19.70
2018-06-14T10:02:14.309Z,19.40
2018-06-14T10:07:10.724Z,19.10
2018-06-14T10:09:38.974Z,19.00
2018-06-14T10:12:07.253Z,19.10
2018-06-14T10:19:32.344Z,19.30
2018-06-14T10:22:00.820Z,19.40
2018-06-14T10:24:29.006Z,19.60
2018-06-14T10:26:57.224Z,19.70
2018-06-14T10:29:26.614Z,19.70
2018-06-14T10:31:54.805Z,19.60
2018-06-14T10:36:51.526Z,19.80
2018-06-14T10:39:21.906Z,20.10
2018-06-14T10:41:50.312Z,20.30
2018-06-14T10:44:19.743Z,20.30
2018-06-14T10:46:48.096Z,20.30
2018-06-14T10:49:16.953Z,20.20
2018-06-14T10:51:45.192Z,20.10
2018-06-14T10:54:16.200Z,20.20
2018-06-14T10:56:44.455Z,20.10
2018-06-14T10:59:12.723Z,20.10
2018-06-14T11:01:41.343Z,20.10
2018-06-14T11:04:09.578Z,20.10
2018-06-14T11:06:37.806Z,20.10
2018-06-14T11:09:12.179Z,20.10
2018-06-14T11:11:41.001Z,20.00
2018-06-14T11:14:09.673Z,20.00
2018-06-14T11:16:38.231Z,19.90
2018-06-14T11:19:06.925Z,19.70
2018-06-14T11:21:35.190Z,19.70
2018-06-14T11:24:04.131Z,19.70
2018-06-14T11:26:32.639Z,20.00
2018-06-14T11:29:02.108Z,20.20
2018-06-14T11:31:31.643Z,20.30
2018-06-14T11:33:59.952Z,20.50
2018-06-14T11:36:28.868Z,20.70
2018-06-14T11:38:57.072Z,20.80
2018-06-14T11:41:25.354Z,21.10
2018-06-14T11:46:22.228Z,21.40
2018-06-14T11:51:20.096Z,21.20
2018-06-14T11:53:48.869Z,21.30
2018-06-14T11:56:17.127Z,21.40
2018-06-14T12:01:13.790Z,21.70
2018-06-14T12:03:42.334Z,21.80
2018-06-14T12:06:10.838Z,21.80
2018-06-14T12:08:39.575Z,21.80
2018-06-14T12:11:10.318Z,21.80
2018-06-14T12:13:38.830Z,21.80
2018-06-14T12:16:07.464Z,21.80
2018-06-14T12:18:35.882Z,21.90
2018-06-14T12:21:04.274Z,22.10
2018-06-14T12:23:33.693Z,22.30
2018-06-14T12:26:01.983Z,22.40
2018-06-14T12:28:30.250Z,22.30
2018-06-14T12:31:00.008Z,22.30
2018-06-14T12:33:28.323Z,22.40
2018-06-14T12:35:56.574Z,22.40
2018-06-14T12:38:25.161Z,22.30
2018-06-14T12:40:53.396Z,22.20
2018-06-14T12:43:21.706Z,22.20
2018-06-14T12:48:19.108Z,22.30
2018-06-14T12:50:47.423Z,22.40
2018-06-14T12:53:15.900Z,22.50
2018-06-14T12:55:44.244Z,22.70
2018-06-14T12:58:12.709Z,22.40
2018-06-14T13:00:41.298Z,22.20
2018-06-14T13:03:09.764Z,22.10
2018-06-14T13:08:06.235Z,22.10
2018-06-14T13:10:34.543Z,22.10
2018-06-14T13:13:02.795Z,22.10
2018-06-14T13:15:31.221Z,22.20
2018-06-14T13:17:59.536Z,22.30
2018-06-14T13:20:29.241Z,22.40
2018-06-14T13:23:04.548Z,22.60
2018-06-14T13:25:34.020Z,22.90
2018-06-14T13:28:05.876Z,23.10
2018-06-14T13:30:34.257Z,23.10
2018-06-14T13:35:33.940Z,23.00
2018-06-14T13:38:02.560Z,23.00
2018-06-14T13:40:31.068Z,23.10
2018-06-14T13:42:59.294Z,22.70
2018-06-14T13:45:27.963Z,22.60
2018-06-14T13:47:56.357Z,22.50
2018-06-14T13:50:27.096Z,22.50
2018-06-14T13:52:55.342Z,22.70
2018-06-14T13:55:23.603Z,22.90
2018-06-14T14:00:19.925Z,23.40
2018-06-14T14:02:49.112Z,23.40
2018-06-14T14:05:17.423Z,23.50
2018-06-14T14:07:45.821Z,23.60
2018-06-14T14:10:14.100Z,23.40
2018-06-14T14:12:42.712Z,23.30
2018-06-14T14:15:11.017Z,23.20
2018-06-14T14:17:39.514Z,23.30
2018-06-14T14:20:07.785Z,23.50
2018-06-14T14:22:36.229Z,23.50
2018-06-14T14:27:33.296Z,23.80
2018-06-14T14:30:01.562Z,24.20
2018-06-14T14:32:30.367Z,24.40
2018-06-14T14:34:58.620Z,24.50
2018-06-14T14:37:27.813Z,24.60
2018-06-14T14:39:57.615Z,24.70
2018-06-14T14:42:29.184Z,24.90
2018-06-14T14:44:57.583Z,24.70
2018-06-14T14:47:25.767Z,24.80
2018-06-14T14:49:55.563Z,24.80
2018-06-14T14:57:19.914Z,25.10
2018-06-14T14:59:48.254Z,25.50
2018-06-14T15:02:16.520Z,25.80
2018-06-14T15:04:44.828Z,26.20
2018-06-14T15:07:13.876Z,26.60
2018-06-14T15:09:42.502Z,27.00
2018-06-14T15:12:10.852Z,27.50
2018-06-14T15:14:39.272Z,27.90
2018-06-14T15:17:07.493Z,28.30
2018-06-14T15:19:35.821Z,28.50
2018-06-14T15:22:04.096Z,28.80
2018-06-14T15:27:01.730Z,28.70
2018-06-14T15:29:30.123Z,28.60
2018-06-14T15:31:59.127Z,29.00
2018-06-14T15:34:27.426Z,29.60
2018-06-14T15:36:55.648Z,30.40
2018-06-14T15:39:24.040Z,30.60
2018-06-14T15:41:52.250Z,31.20
2018-06-14T15:49:16.694Z,35.40
2018-06-14T15:51:44.975Z,35.20
2018-06-14T15:54:14.631Z,34.60
2018-06-14T15:56:43.170Z,34.50
2018-06-14T15:59:12.705Z,35.20
2018-06-14T16:01:41.322Z,35.80
2018-06-14T16:09:10.792Z,37.30
2018-06-14T16:11:39.031Z,37.10
2018-06-14T16:14:07.573Z,37.10
2018-06-14T16:16:35.937Z,37.40
2018-06-14T16:19:04.489Z,37.50
2018-06-14T16:24:00.720Z,38.00
2018-06-14T16:26:29.007Z,38.00
2018-06-14T16:28:57.268Z,37.90
2018-06-14T16:31:25.558Z,38.20
2018-06-14T16:33:53.934Z,38.80
2018-06-14T16:36:22.320Z,39.60
2018-06-14T16:38:50.721Z,39.80
2018-06-14T16:41:19.229Z,40.50
2018-06-14T16:43:49.202Z,40.70
2018-06-14T16:46:18.229Z,40.90
2018-06-14T16:51:20.366Z,39.80
2018-06-14T16:53:52.098Z,39.00
2018-06-14T16:56:20.476Z,38.80
2018-06-14T16:58:48.710Z,38.00
2018-06-14T17:01:16.972Z,37.90
2018-06-14T17:06:13.725Z,38.90
2018-06-14T17:08:42.187Z,39.50
2018-06-14T17:11:10.574Z,40.20
2018-06-14T17:13:38.971Z,40.90
2018-06-14T17:16:07.304Z,40.50
2018-06-14T17:18:35.647Z,40.70
2018-06-14T17:21:04.044Z,40.70
2018-06-14T17:23:33.481Z,41.00
2018-06-14T17:26:01.757Z,41.60
2018-06-14T17:28:30.129Z,41.60
2018-06-14T17:30:58.774Z,41.70
2018-06-14T17:33:27.052Z,40.40
2018-06-14T17:35:55.322Z,40.00
2018-06-14T17:38:24.216Z,39.90
2018-06-14T17:40:52.870Z,39.80
2018-06-14T17:43:21.323Z,39.80
2018-06-14T17:45:50.356Z,38.30
2018-06-14T17:48:19.718Z,37.40
2018-06-14T17:50:48.150Z,36.70
2018-06-14T17:53:16.469Z,36.30
2018-06-14T17:55:44.847Z,36.10
2018-06-14T17:58:13.467Z,35.50
2018-06-14T18:00:41.775Z,34.90
2018-06-14T18:03:11.706Z,34.20
2018-06-14T18:05:40.373Z,33.70
2018-06-14T18:08:09.060Z,33.60
2018-06-14T18:10:37.317Z,33.30
2018-06-14T18:13:06.992Z,32.30
2018-06-14T18:18:03.502Z,30.90
2018-06-14T18:20:32.084Z,30.10
2018-06-14T18:23:00.350Z,29.20
2018-06-14T18:25:29.600Z,28.70
2018-06-14T18:27:57.839Z,28.50
2018-06-14T18:30:26.050Z,28.20
2018-06-14T18:32:55.357Z,28.00
2018-06-14T18:35:23.622Z,27.90
2018-06-14T18:37:52.222Z,27.60
2018-06-14T18:40:20.502Z,27.30
2018-06-14T18:42:50.538Z,26.80
2018-06-14T18:45:18.834Z,26.30
2018-06-14T18:47:47.240Z,25.40
2018-06-14T18:52:44.538Z,24.20
2018-06-14T18:55:12.750Z,23.70
2018-06-14T18:57:41.044Z,23.40
2018-06-14T19:00:10.695Z,23.10
2018-06-14T19:02:39.013Z,22.90
2018-06-14T19:05:07.223Z,22.80
2018-06-14T19:07:35.505Z,22.60
2018-06-14T19:12:32.546Z,22.30
2018-06-14T19:15:01.140Z,22.20
2018-06-14T19:19:57.558Z,21.90
2018-06-14T19:22:27.506Z,21.70
2018-06-14T19:24:55.987Z,21.50
2018-06-14T19:27:24.590Z,21.40
2018-06-14T19:29:52.987Z,21.20
2018-06-14T19:34:55.483Z,21.00
2018-06-14T19:37:24.275Z,20.90
2018-06-14T19:39:53.388Z,20.80
2018-06-14T19:42:21.940Z,20.80
2018-06-14T19:47:20.636Z,20.70
2018-06-14T19:49:48.937Z,20.50
2018-06-14T19:52:17.583Z,20.40
2018-06-14T19:54:45.889Z,20.30
2018-06-14T19:57:14.336Z,20.30
2018-06-14T19:59:49.780Z,20.20
2018-06-14T20:07:15.956Z,20.00
2018-06-14T20:09:46.867Z,19.90
2018-06-14T20:12:16.199Z,19.80
2018-06-14T20:14:46.701Z,19.70
2018-06-14T20:17:15.686Z,19.70
2018-06-14T20:19:44.524Z,19.70
2018-06-14T20:22:16.635Z,19.70
2018-06-14T20:24:46.017Z,19.70
2018-06-14T20:27:14.865Z,19.60
2018-06-14T20:29:44.303Z,19.50
2018-06-14T20:32:13.894Z,19.50
2018-06-14T20:34:42.265Z,19.40
2018-06-14T20:37:10.912Z,19.30
2018-06-14T20:42:11.357Z,19.20
2018-06-14T20:44:40.020Z,19.10
2018-06-14T20:47:08.366Z,19.00
2018-06-14T20:49:36.852Z,19.00
2018-06-14T20:52:06.842Z,18.90
2018-06-14T20:54:35.271Z,18.80
2018-06-14T20:57:11.303Z,18.70
2018-06-14T20:59:41.595Z,18.70
2018-06-14T21:02:09.905Z,18.70
2018-06-14T21:07:06.767Z,18.60
2018-06-14T21:12:04.061Z,18.50
2018-06-14T21:14:35.147Z,18.40
2018-06-14T21:17:03.427Z,18.40
2018-06-14T21:19:31.683Z,18.40
2018-06-14T21:22:01.441Z,18.40
2018-06-14T21:24:29.908Z,18.40
2018-06-14T21:26:58.235Z,18.30
2018-06-14T21:29:26.778Z,18.30
2018-06-14T21:31:57.074Z,18.30
2018-06-14T21:36:54.158Z,18.30
2018-06-14T21:41:50.770Z,18.30
2018-06-14T21:44:19.114Z,18.30
2018-06-14T21:46:47.403Z,18.30
2018-06-14T21:49:15.753Z,18.30
2018-06-14T21:51:44.843Z,18.30
2018-06-14T21:54:13.490Z,18.30
2018-06-14T21:56:41.959Z,18.30
2018-06-14T21:59:11.243Z,18.30
2018-06-14T22:01:39.588Z,18.40
2018-06-14T22:04:08.626Z,18.30
2018-06-14T22:09:07.080Z,18.30
2018-06-14T22:11:35.332Z,18.30
2018-06-14T22:19:00.481Z,18.30
2018-06-14T22:21:28.912Z,18.30
2018-06-14T22:23:57.261Z,18.30
2018-06-14T22:26:26.235Z,18.30
2018-06-14T22:28:55.637Z,18.30
2018-06-14T22:31:24.938Z,18.30
2018-06-14T22:34:04.590Z,18.30
2018-06-14T22:36:32.992Z,18.30
2018-06-14T22:39:01.265Z,18.30
2018-06-14T22:43:57.552Z,18.30
2018-06-14T22:46:25.755Z,18.30
2018-06-14T22:48:54.039Z,18.30
2018-06-14T22:51:22.739Z,18.40
2018-06-14T22:56:19.341Z,18.30
2018-06-14T22:58:47.553Z,18.30
2018-06-14T23:01:24.742Z,18.40
2018-06-14T23:03:53.333Z,18.30
2018-06-14T23:06:21.589Z,18.40
2018-06-14T23:08:49.769Z,18.50
2018-06-14T23:11:18.963Z,18.60
2018-06-14T23:16:15.307Z,18.60
2018-06-14T23:18:43.606Z,18.70
2018-06-14T23:21:11.841Z,18.70
2018-06-14T23:23:40.030Z,18.70
2018-06-14T23:26:08.463Z,18.70
2018-06-14T23:28:36.726Z,18.60
2018-06-14T23:31:05.009Z,18.50
2018-06-14T23:33:33.290Z,18.60
2018-06-14T23:36:01.530Z,18.50
2018-06-14T23:38:30.607Z,18.50
2018-06-14T23:40:59.294Z,18.50
2018-06-14T23:43:27.502Z,18.50
2018-06-14T23:45:55.707Z,18.50
2018-06-14T23:48:23.994Z,18.50
2018-06-14T23:50:52.392Z,18.50
2018-06-14T23:53:20.988Z,18.50
2018-06-14T23:55:49.312Z,18.50
